Time;durP1;ratioP1;P1;durP2;ratioP2;P2;SDS_P1;SDS_P2;PMS_P1;PMS_P2;Temp;Humidity;BMP_temperature;BMP_pressure;BME280_temperature;BME280_humidity;BME280_pressure;Samples;Min_cycle;Max_cycle;Signal;HPM_P1;HPM_P2
2024/03/27 00:01:42;;;;;;;3.60;2.73;;;11.00;99.90;;;;;;5077591;28;20163;-69
2024/03/27 00:04:09;;;;;;;3.73;2.60;;;11.00;99.90;;;;;;5077697;28;20189;-69
2024/03/27 00:06:35;;;;;;;5.30;2.17;;;11.00;99.90;;;;;;5077439;28;20220;-69
2024/03/27 00:09:00;;;;;;;4.93;2.50;;;11.00;99.90;;;;;;5059429;28;20436;-69
2024/03/27 00:11:27;;;;;;;3.10;2.63;;;11.10;99.90;;;;;;5075766;28;20405;-69
2024/03/27 00:13:54;;;;;;;3.90;2.30;;;11.00;99.90;;;;;;5074543;28;20185;-69
2024/03/27 00:16:19;;;;;;;2.90;2.60;;;11.10;99.90;;;;;;5074071;28;20473;-69
2024/03/27 00:18:45;;;;;;;3.40;2.90;;;11.00;99.90;;;;;;5074131;28;20425;-69
2024/03/27 00:21:11;;;;;;;2.70;2.10;;;11.00;99.90;;;;;;5074216;28;20177;-69
2024/03/27 00:23:36;;;;;;;3.17;2.40;;;11.10;99.90;;;;;;5074479;28;20185;-69
2024/03/27 00:26:02;;;;;;;7.53;3.10;;;11.10;99.90;;;;;;5074262;28;20529;-69
2024/03/27 00:28:28;;;;;;;2.77;2.57;;;11.10;99.90;;;;;;5074049;28;20186;-69
2024/03/27 00:30:54;;;;;;;3.97;3.17;;;11.10;99.90;;;;;;5074222;28;20405;-69
2024/03/27 00:33:19;;;;;;;4.20;3.47;;;11.10;99.90;;;;;;5074406;28;20174;-69
2024/03/27 00:35:57;;;;;;;5.70;3.53;;;11.10;99.90;;;;;;5074408;28;20537;-69
2024/03/27 00:38:24;;;;;;;3.73;3.40;;;11.10;99.90;;;;;;5073665;28;20170;-69
2024/03/27 00:40:50;;;;;;;3.83;2.83;;;11.00;99.90;;;;;;5074030;28;20451;-69
2024/03/27 00:43:17;;;;;;;4.80;3.00;;;11.00;99.90;;;;;;5073807;28;20402;-69
2024/03/27 00:45:43;;;;;;;4.00;2.53;;;11.10;99.90;;;;;;5074127;28;20405;-69
2024/03/27 00:48:09;;;;;;;8.67;3.07;;;11.10;99.90;;;;;;5073772;28;20428;-69
2024/03/27 00:50:35;;;;;;;3.73;2.90;;;11.00;99.90;;;;;;5073924;28;20489;-69
2024/03/27 00:53:01;;;;;;;4.17;3.23;;;11.00;99.90;;;;;;5055894;28;20186;-69
2024/03/27 00:55:27;;;;;;;4.13;2.70;;;10.90;99.90;;;;;;5055978;28;20170;-69
2024/03/27 00:57:52;;;;;;;2.90;2.57;;;10.90;99.90;;;;;;5073337;28;20401;-69
2024/03/27 01:00:18;;;;;;;3.60;2.40;;;10.90;99.90;;;;;;5068981;28;20267;-69
2024/03/27 01:02:45;;;;;;;4.37;2.83;;;10.90;99.90;;;;;;5073540;28;20181;-69
2024/03/27 01:05:11;;;;;;;4.77;2.30;;;10.80;99.90;;;;;;5059959;28;20773;-69
2024/03/27 01:07:37;;;;;;;3.87;2.70;;;10.80;99.90;;;;;;5073361;28;20926;-70
2024/03/27 01:10:04;;;;;;;2.43;2.23;;;10.80;99.90;;;;;;5072975;28;20452;-69
2024/03/27 01:12:30;;;;;;;3.67;2.47;;;10.90;99.90;;;;;;5067540;28;20444;-69
2024/03/27 01:14:56;;;;;;;6.63;2.73;;;10.80;99.90;;;;;;5063684;28;20451;-69
2024/03/27 01:17:21;;;;;;;2.70;2.37;;;10.90;99.90;;;;;;5073199;28;20158;-69
2024/03/27 01:19:47;;;;;;;2.73;2.30;;;10.90;99.90;;;;;;5072943;28;20202;-69
2024/03/27 01:22:13;;;;;;;4.60;2.80;;;10.70;99.90;;;;;;5069726;28;20538;-69
2024/03/27 01:24:38;;;;;;;5.27;3.33;;;10.70;99.90;;;;;;5053905;28;20409;-69
2024/03/27 01:27:04;;;;;;;3.90;2.70;;;10.80;99.90;;;;;;5073030;28;20178;-69
2024/03/27 01:29:30;;;;;;;3.30;3.00;;;10.80;99.90;;;;;;5073087;28;20194;-69
2024/03/27 01:31:55;;;;;;;3.43;2.90;;;10.80;99.90;;;;;;5071080;28;20189;-69
2024/03/27 01:34:21;;;;;;;3.70;2.70;;;10.70;99.90;;;;;;5071192;28;20166;-69
2024/03/27 01:36:47;;;;;;;4.00;2.63;;;10.80;99.90;;;;;;5072725;28;20165;-69
2024/03/27 01:39:14;;;;;;;3.10;2.70;;;10.80;99.90;;;;;;5072899;28;20456;-69
2024/03/27 01:41:39;;;;;;;4.57;3.17;;;10.70;99.90;;;;;;5072036;28;20891;-69
2024/03/27 01:44:05;;;;;;;3.30;2.97;;;10.70;99.90;;;;;;5069836;28;20406;-69
2024/03/27 01:46:31;;;;;;;3.30;3.00;;;10.60;99.90;;;;;;5072430;28;20173;-69
2024/03/27 01:48:57;;;;;;;3.10;2.77;;;10.50;99.90;;;;;;5072723;28;20188;-69
2024/03/27 01:51:23;;;;;;;5.50;2.87;;;10.50;99.90;;;;;;5071257;28;20173;-69
2024/03/27 01:53:50;;;;;;;4.67;2.90;;;10.50;99.90;;;;;;5067914;28;20174;-69
2024/03/27 01:56:15;;;;;;;3.10;2.80;;;10.50;99.90;;;;;;5072105;28;20413;-69
2024/03/27 01:58:42;;;;;;;3.83;2.63;;;10.50;99.90;;;;;;5071461;28;20436;-69
2024/03/27 02:01:08;;;;;;;3.70;2.97;;;10.40;99.90;;;;;;5069900;28;20178;-69
2024/03/27 02:03:35;;;;;;;7.90;3.73;;;10.30;99.90;;;;;;5071897;28;20832;-69
2024/03/27 02:06:01;;;;;;;3.80;2.83;;;10.20;99.90;;;;;;5072542;28;20404;-69
2024/03/27 02:08:27;;;;;;;2.70;2.50;;;10.20;99.90;;;;;;5071998;28;20420;-69
2024/03/27 02:10:53;;;;;;;4.60;3.17;;;10.20;99.90;;;;;;5068110;28;20420;-69
2024/03/27 02:13:18;;;;;;;3.63;3.33;;;10.10;99.90;;;;;;5071937;28;20194;-69
2024/03/27 02:15:44;;;;;;;3.00;2.70;;;10.20;99.90;;;;;;5072332;28;20182;-69
2024/03/27 02:18:09;;;;;;;3.13;2.83;;;10.20;99.90;;;;;;5071735;28;20534;-69
2024/03/27 02:20:36;;;;;;;2.60;2.37;;;10.30;99.90;;;;;;5068441;28;20240;-69
2024/03/27 02:23:08;;;;;;;5.17;3.13;;;10.30;99.90;;;;;;5071964;28;20259;-69
2024/03/27 02:25:49;;;;;;;3.40;3.00;;;10.30;99.90;;;;;;5071998;28;20502;-69
2024/03/27 02:28:16;;;;;;;4.53;3.53;;;10.30;99.90;;;;;;5071902;28;20785;-69
2024/03/27 02:30:47;;;;;;;5.43;2.60;;;10.30;99.90;;;;;;5066425;28;20929;-69
2024/03/27 02:33:12;;;;;;;3.63;3.33;;;10.30;99.90;;;;;;5071996;28;20430;-69
2024/03/27 02:35:38;;;;;;;3.73;2.80;;;10.20;99.90;;;;;;5071506;28;20404;-69
2024/03/27 02:38:03;;;;;;;2.70;2.37;;;10.30;99.90;;;;;;5071278;28;20681;-69
2024/03/27 02:40:29;;;;;;;2.93;2.30;;;10.30;99.90;;;;;;5066084;28;20214;-69
2024/03/27 02:42:54;;;;;;;3.90;2.90;;;10.30;99.90;;;;;;5071747;28;20174;-69
2024/03/27 02:45:20;;;;;;;4.80;2.43;;;10.30;99.90;;;;;;5071845;28;20170;-69
2024/03/27 02:47:45;;;;;;;5.50;3.03;;;10.30;99.90;;;;;;5071636;28;20166;-69
2024/03/27 02:50:11;;;;;;;3.27;2.40;;;10.40;99.90;;;;;;5067433;28;20194;-69
2024/03/27 02:52:37;;;;;;;4.07;2.37;;;10.40;99.90;;;;;;5069928;28;20198;-69
2024/03/27 02:55:02;;;;;;;2.30;1.77;;;10.50;99.90;;;;;;5071626;28;20629;-69
2024/03/27 02:57:28;;;;;;;4.13;2.50;;;10.50;99.90;;;;;;5071558;28;20177;-69
2024/03/27 02:59:53;;;;;;;3.30;2.33;;;10.60;99.90;;;;;;5066897;28;20300;-69
2024/03/27 03:02:19;;;;;;;4.90;2.70;;;10.60;99.90;;;;;;5071568;28;20257;-70
2024/03/27 03:04:44;;;;;;;4.70;2.63;;;10.60;99.90;;;;;;5071751;28;20536;-69
2024/03/27 03:07:10;;;;;;;3.73;2.77;;;10.70;99.90;;;;;;5070717;28;20185;-69
2024/03/27 03:09:36;;;;;;;4.23;2.90;;;10.60;99.90;;;;;;5067319;28;20530;-69
2024/03/27 03:12:04;;;;;;;4.87;2.93;;;10.50;99.90;;;;;;5071552;28;20884;-69
2024/03/27 03:14:29;;;;;;;4.60;2.50;;;10.40;99.90;;;;;;5061796;28;20835;-69
2024/03/27 03:16:55;;;;;;;4.33;3.20;;;10.30;99.90;;;;;;5071346;28;20434;-69
2024/03/27 03:19:20;;;;;;;3.87;3.40;;;10.30;99.90;;;;;;5067542;28;20566;-69
2024/03/27 03:21:46;;;;;;;3.40;3.10;;;10.30;99.90;;;;;;5070754;28;20170;-69
2024/03/27 03:24:11;;;;;;;4.30;3.37;;;10.20;99.90;;;;;;5071404;28;20194;-69
2024/03/27 03:26:38;;;;;;;6.00;4.17;;;10.20;99.90;;;;;;5071214;28;20253;-69
2024/03/27 03:29:03;;;;;;;4.33;3.50;;;10.20;99.90;;;;;;5069420;28;20297;-69
2024/03/27 03:31:29;;;;;;;4.80;3.37;;;10.30;99.90;;;;;;5051297;28;20459;-69
2024/03/27 03:33:54;;;;;;;3.50;3.20;;;10.30;99.90;;;;;;5071237;28;20181;-69
2024/03/27 03:36:20;;;;;;;3.63;3.20;;;10.30;99.90;;;;;;5071294;28;20249;-69
2024/03/27 03:38:46;;;;;;;4.63;4.17;;;10.30;99.90;;;;;;5070189;28;20186;-69
2024/03/27 03:41:13;;;;;;;10.40;4.47;;;10.30;99.90;;;;;;5051911;28;20942;-69
2024/03/27 03:43:39;;;;;;;4.03;3.63;;;10.30;99.90;;;;;;5071315;28;20163;-69
2024/03/27 03:46:05;;;;;;;7.17;4.30;;;10.30;99.90;;;;;;5071245;28;20421;-69
2024/03/27 03:48:31;;;;;;;6.83;4.90;;;10.30;99.90;;;;;;5074834;28;20231;-69
2024/03/27 03:50:56;;;;;;;4.63;3.77;;;10.30;99.90;;;;;;5056199;28;20760;-69
2024/03/27 03:53:22;;;;;;;5.57;4.53;;;10.40;99.90;;;;;;5074694;28;20269;-69
2024/03/27 03:55:47;;;;;;;4.50;3.97;;;10.40;99.90;;;;;;5074788;28;20255;-69
2024/03/27 03:58:13;;;;;;;6.07;3.97;;;10.40;99.90;;;;;;5074925;28;20174;-69
2024/03/27 04:00:39;;;;;;;6.40;4.50;;;10.40;99.90;;;;;;5070240;28;20293;-69
2024/03/27 04:03:05;;;;;;;5.57;4.80;;;10.40;99.90;;;;;;5074759;28;20914;-69
2024/03/27 04:05:31;;;;;;;6.10;3.87;;;10.30;99.90;;;;;;5074572;28;20223;-69
2024/03/27 04:07:57;;;;;;;4.50;3.30;;;10.30;99.90;;;;;;5074531;28;20163;-69
2024/03/27 04:10:22;;;;;;;5.10;3.50;;;10.30;99.90;;;;;;5070727;28;20186;-69
2024/03/27 04:12:48;;;;;;;5.57;3.63;;;10.30;99.90;;;;;;5074456;28;20213;-69
2024/03/27 04:15:14;;;;;;;4.53;3.27;;;10.30;99.90;;;;;;5072950;28;20526;-69
2024/03/27 04:17:40;;;;;;;3.63;3.33;;;10.30;99.90;;;;;;5071016;28;20182;-70
2024/03/27 04:20:12;;;;;;;5.83;4.40;;;10.30;99.90;;;;;;5070792;28;20466;-69
2024/03/27 04:22:38;;;;;;;5.47;3.13;;;10.30;99.90;;;;;;5056546;28;20419;-69
2024/03/27 04:25:04;;;;;;;5.73;3.53;;;10.30;99.90;;;;;;5074369;28;20412;-69
2024/03/27 04:27:30;;;;;;;4.97;3.90;;;10.30;99.90;;;;;;5074045;28;20178;-70
2024/03/27 04:29:56;;;;;;;4.97;3.33;;;10.30;99.90;;;;;;5070572;28;20440;-69
2024/03/27 04:32:25;;;;;;;4.57;3.20;;;10.20;99.90;;;;;;5074124;28;20170;-69
2024/03/27 04:34:51;;;;;;;4.80;2.80;;;10.30;99.90;;;;;;5074245;28;20419;-69
2024/03/27 04:37:17;;;;;;;6.47;3.37;;;10.20;99.90;;;;;;5073965;28;20400;-69
2024/03/27 04:39:42;;;;;;;3.87;3.53;;;10.20;99.90;;;;;;5070441;28;20285;-69
2024/03/27 04:42:11;;;;;;;6.40;4.27;;;10.30;99.90;;;;;;5073884;28;20638;-69
2024/03/27 04:44:38;;;;;;;4.00;3.40;;;10.30;99.90;;;;;;5074190;28;20166;-69
2024/03/27 04:47:04;;;;;;;5.77;3.83;;;10.30;99.90;;;;;;5073803;28;20487;-69
2024/03/27 04:49:30;;;;;;;3.63;3.33;;;10.40;99.90;;;;;;5071738;28;20443;-69
2024/03/27 04:51:55;;;;;;;4.37;3.53;;;10.40;99.90;;;;;;5056312;28;20444;-69
2024/03/27 04:54:22;;;;;;;3.93;3.27;;;10.40;99.90;;;;;;5074019;28;20173;-69
2024/03/27 04:56:47;;;;;;;8.50;4.13;;;10.40;99.90;;;;;;5073817;28;20702;-69
2024/03/27 04:59:13;;;;;;;5.03;3.57;;;10.40;99.90;;;;;;5071287;28;20456;-69
2024/03/27 05:01:38;;;;;;;4.80;4.10;;;10.50;99.90;;;;;;5071919;28;20166;-69
2024/03/27 05:04:04;;;;;;;4.10;3.70;;;10.50;99.90;;;;;;5073601;28;20174;-69
2024/03/27 05:06:29;;;;;;;3.20;2.80;;;10.50;99.90;;;;;;5073492;28;20165;-69
2024/03/27 05:08:55;;;;;;;3.93;2.50;;;10.60;99.90;;;;;;5072123;28;20594;-69
2024/03/27 05:11:20;;;;;;;7.17;3.30;;;10.60;99.90;;;;;;5070910;28;20252;-69
2024/03/27 05:13:46;;;;;;;3.23;2.40;;;10.70;99.90;;;;;;5073450;28;20583;-70
2024/03/27 05:16:14;;;;;;;5.40;3.20;;;10.80;99.90;;;;;;5069528;28;20253;-69
2024/03/27 05:18:40;;;;;;;5.63;3.37;;;10.80;99.90;;;;;;5072946;28;20201;-69
2024/03/27 05:21:08;;;;;;;3.80;3.10;;;10.80;99.90;;;;;;5073547;28;20919;-69
2024/03/27 05:23:34;;;;;;;6.87;3.90;;;10.90;99.90;;;;;;5072946;28;20300;-69
2024/03/27 05:26:01;;;;;;;3.23;2.93;;;10.90;99.90;;;;;;5070473;28;20810;-69
2024/03/27 05:28:27;;;;;;;6.03;3.30;;;10.90;99.90;;;;;;5072609;28;20179;-69
2024/03/27 05:30:53;;;;;;;3.97;2.63;;;10.90;99.90;;;;;;5073420;28;20481;-69
2024/03/27 05:33:18;;;;;;;5.03;2.60;;;10.90;99.90;;;;;;5073153;28;20453;-69
2024/03/27 05:35:44;;;;;;;4.90;2.70;;;10.90;99.90;;;;;;5072264;28;20653;-69
2024/03/27 05:38:09;;;;;;;3.90;2.63;;;10.90;99.90;;;;;;5068172;28;20174;-70
2024/03/27 05:40:35;;;;;;;3.90;2.50;;;10.90;99.90;;;;;;5072639;28;20198;-70
2024/03/27 05:43:00;;;;;;;2.53;2.13;;;10.80;99.90;;;;;;5073058;28;20667;-70
2024/03/27 05:45:26;;;;;;;10.60;2.33;;;10.80;99.90;;;;;;5073017;28;20173;-70
2024/03/27 05:47:51;;;;;;;5.90;2.20;;;10.80;99.90;;;;;;5068757;28;20170;-70
2024/03/27 05:50:18;;;;;;;2.93;2.20;;;10.90;99.90;;;;;;5072679;28;20209;-69
2024/03/27 05:52:44;;;;;;;3.93;2.33;;;10.90;99.90;;;;;;5072499;28;20247;-69
2024/03/27 05:55:09;;;;;;;3.03;2.50;;;11.00;99.90;;;;;;5072641;28;20408;-70
2024/03/27 05:57:35;;;;;;;2.90;2.70;;;11.10;99.90;;;;;;5072365;28;20175;-69
2024/03/27 06:00:00;;;;;;;2.23;2.03;;;11.10;99.90;;;;;;5067169;28;20194;-69
2024/03/27 06:02:26;;;;;;;2.80;2.47;;;11.20;99.90;;;;;;5072577;28;20170;-70
2024/03/27 06:04:52;;;;;;;3.40;2.90;;;11.20;99.90;;;;;;5072406;28;20163;-69
2024/03/27 06:07:18;;;;;;;4.73;2.90;;;11.30;99.90;;;;;;5072159;28;20162;-69
2024/03/27 06:09:44;;;;;;;3.90;2.63;;;11.20;99.90;;;;;;5070714;28;20921;-69
2024/03/27 06:12:10;;;;;;;3.87;3.10;;;11.30;99.90;;;;;;5072249;28;20507;-69
2024/03/27 06:14:35;;;;;;;4.77;2.77;;;11.40;99.90;;;;;;5072293;28;20424;-69
2024/03/27 06:17:01;;;;;;;2.70;2.50;;;11.40;99.90;;;;;;5072050;28;20170;-70
2024/03/27 06:19:26;;;;;;;3.90;1.90;;;11.40;99.90;;;;;;5070845;28;20201;-69
2024/03/27 06:21:52;;;;;;;5.13;2.53;;;11.40;99.90;;;;;;5072271;28;20652;-69
2024/03/27 06:24:17;;;;;;;3.27;2.20;;;11.40;99.90;;;;;;5072158;28;20163;-70
2024/03/27 06:26:43;;;;;;;4.80;2.67;;;11.50;99.90;;;;;;5071981;28;20169;-70
2024/03/27 06:29:09;;;;;;;2.90;2.23;;;11.50;99.90;;;;;;5071991;28;20243;-69
2024/03/27 06:31:34;;;;;;;3.57;2.07;;;11.50;99.90;;;;;;5072233;28;20170;-70
2024/03/27 06:34:00;;;;;;;4.07;2.43;;;11.50;99.90;;;;;;5072409;28;20177;-69
2024/03/27 06:36:26;;;;;;;2.83;2.10;;;11.60;99.90;;;;;;5064764;28;20236;-69
2024/03/27 06:38:51;;;;;;;2.80;2.33;;;11.60;99.90;;;;;;5068839;28;20186;-69
2024/03/27 06:41:17;;;;;;;4.53;2.40;;;11.70;99.90;;;;;;5071816;28;20646;-69
2024/03/27 06:43:42;;;;;;;2.90;2.13;;;11.70;99.90;;;;;;5071730;28;20213;-69
2024/03/27 06:46:08;;;;;;;2.73;2.40;;;11.80;99.90;;;;;;5071896;28;20245;-69
2024/03/27 06:48:43;;;;;;;6.73;3.00;;;11.70;99.90;;;;;;5071851;28;20187;-69
2024/03/27 06:51:09;;;;;;;4.70;2.53;;;11.80;99.90;;;;;;5072028;28;20162;-69
2024/03/27 06:53:35;;;;;;;3.87;2.43;;;11.90;99.90;;;;;;5071630;28;20768;-70
2024/03/27 06:56:05;;;;;;;2.90;2.57;;;11.90;99.90;;;;;;5071844;28;20461;-69
2024/03/27 06:58:30;;;;;;;2.13;1.90;;;11.90;99.90;;;;;;5071493;28;20182;-69
2024/03/27 07:00:58;;;;;;;5.80;2.47;;;11.90;99.90;;;;;;5066719;28;20962;-69
2024/03/27 07:03:23;;;;;;;3.50;2.70;;;12.00;99.90;;;;;;5071559;28;20177;-69
2024/03/27 07:05:50;;;;;;;2.40;2.00;;;11.90;99.90;;;;;;5071633;28;20481;-69
2024/03/27 07:08:15;;;;;;;2.50;2.00;;;12.00;99.90;;;;;;5071421;28;20487;-69
2024/03/27 07:10:41;;;;;;;1.90;1.80;;;12.00;99.90;;;;;;5071631;28;20536;-69
2024/03/27 07:13:06;;;;;;;2.53;2.33;;;12.00;99.90;;;;;;5053755;28;20174;-70
2024/03/27 07:15:32;;;;;;;2.23;1.83;;;12.00;99.90;;;;;;5071569;28;20220;-70
2024/03/27 07:17:57;;;;;;;3.37;1.70;;;12.00;99.90;;;;;;5053491;28;20228;-70
2024/03/27 07:20:23;;;;;;;2.80;2.03;;;12.00;99.90;;;;;;5070852;28;20585;-69
2024/03/27 07:22:48;;;;;;;2.40;1.93;;;12.10;99.90;;;;;;5070910;28;20178;-69
2024/03/27 07:25:14;;;;;;;3.40;2.80;;;12.20;99.90;;;;;;5075431;28;20177;-70
2024/03/27 07:27:39;;;;;;;4.77;2.00;;;12.30;99.90;;;;;;5075016;28;20162;-69
2024/03/27 07:30:06;;;;;;;2.43;2.23;;;12.40;99.90;;;;;;5075294;28;20198;-69
2024/03/27 07:32:32;;;;;;;2.30;2.07;;;12.60;99.90;;;;;;5071020;28;20182;-69
2024/03/27 07:34:57;;;;;;;2.30;1.93;;;12.80;99.90;;;;;;5072889;28;20454;-69
2024/03/27 07:37:23;;;;;;;2.93;2.20;;;12.60;99.90;;;;;;5075071;28;20261;-69
2024/03/27 07:39:48;;;;;;;2.07;1.43;;;12.70;99.90;;;;;;5074941;28;20272;-69
2024/03/27 07:42:14;;;;;;;3.53;1.70;;;12.70;99.90;;;;;;5075111;28;20257;-69
2024/03/27 07:44:39;;;;;;;2.80;2.03;;;12.80;99.90;;;;;;5075193;28;20181;-69
2024/03/27 07:47:05;;;;;;;14.13;8.37;;;12.90;99.90;;;;;;5074885;28;20213;-69
2024/03/27 07:49:30;;;;;;;22.73;8.40;;;12.90;99.90;;;;;;5057233;28;20201;-69
2024/03/27 07:51:56;;;;;;;20.30;9.67;;;13.10;99.90;;;;;;5074916;28;20186;-69
2024/03/27 07:54:21;;;;;;;30.03;10.10;;;13.20;99.90;;;;;;5074989;28;20170;-69
2024/03/27 07:56:47;;;;;;;5.47;3.50;;;13.40;99.90;;;;;;5074705;28;20162;-70
2024/03/27 07:59:13;;;;;;;2.13;1.70;;;13.30;99.90;;;;;;5074065;28;20324;-69
2024/03/27 08:01:39;;;;;;;4.00;2.23;;;13.30;99.90;;;;;;5063214;28;20178;-70
2024/03/27 08:04:05;;;;;;;5.97;4.80;;;13.30;99.90;;;;;;5062111;28;20400;-69
2024/03/27 08:06:30;;;;;;;8.10;4.10;;;13.50;99.90;;;;;;5056270;28;20422;-69
2024/03/27 08:08:56;;;;;;;8.73;5.23;;;13.70;99.90;;;;;;5066356;28;20741;-69
2024/03/27 08:11:22;;;;;;;5.40;2.37;;;13.90;99.90;;;;;;5055321;28;20209;-69
2024/03/27 08:13:48;;;;;;;5.23;3.37;;;14.10;99.90;;;;;;5065991;28;20175;-69
2024/03/27 08:16:13;;;;;;;6.00;3.77;;;14.10;99.90;;;;;;5073098;28;20404;-69
2024/03/27 08:18:44;;;;;;;1.67;1.57;;;14.10;99.90;;;;;;5066162;28;20447;-69
2024/03/27 08:21:10;;;;;;;2.23;1.37;;;14.20;99.90;;;;;;5074499;28;20631;-70
2024/03/27 08:23:35;;;;;;;1.20;0.97;;;14.30;99.90;;;;;;5074378;28;20432;-69
2024/03/27 08:26:02;;;;;;;1.67;1.33;;;14.30;99.90;;;;;;5074421;28;20162;-70
2024/03/27 08:28:28;;;;;;;1.97;1.50;;;14.40;99.90;;;;;;5074045;28;20216;-70
2024/03/27 08:30:53;;;;;;;1.13;1.03;;;14.40;99.90;;;;;;5074262;28;20412;-69
2024/03/27 08:33:19;;;;;;;1.40;1.20;;;14.60;99.90;;;;;;5073542;28;20185;-69
2024/03/27 08:35:45;;;;;;;1.00;0.90;;;14.40;99.90;;;;;;5074409;28;20162;-69
2024/03/27 08:38:10;;;;;;;1.60;1.10;;;14.20;99.90;;;;;;5074184;28;20439;-69
2024/03/27 08:40:36;;;;;;;1.37;1.20;;;14.40;99.90;;;;;;5074103;28;20342;-71
2024/03/27 08:43:02;;;;;;;1.63;1.30;;;14.60;99.90;;;;;;5069131;28;20261;-71
2024/03/27 08:45:28;;;;;;;1.20;1.00;;;14.80;99.90;;;;;;5074223;28;20158;-71
2024/03/27 08:47:53;;;;;;;1.27;1.00;;;15.10;99.90;;;;;;5073978;28;20397;-71
2024/03/27 08:50:19;;;;;;;3.37;1.10;;;15.30;99.90;;;;;;5074611;28;20942;-72
2024/03/27 08:52:46;;;;;;;1.70;1.10;;;15.60;99.90;;;;;;5056026;28;20184;-70
2024/03/27 08:55:12;;;;;;;1.40;0.90;;;15.80;99.90;;;;;;5074017;28;20190;-69
2024/03/27 08:57:38;;;;;;;1.47;1.23;;;16.00;99.90;;;;;;5073661;28;20412;-71
2024/03/27 09:00:08;;;;;;;1.30;1.20;;;15.90;99.90;;;;;;5073673;28;21310;-71
2024/03/27 09:02:34;;;;;;;1.97;1.20;;;16.00;99.90;;;;;;5073948;28;20192;-69
2024/03/27 09:04:59;;;;;;;1.47;1.00;;;15.90;99.90;;;;;;5073914;28;20392;-69
2024/03/27 09:07:25;;;;;;;1.60;1.10;;;15.70;99.90;;;;;;5073520;28;20652;-69
2024/03/27 09:09:50;;;;;;;1.57;1.27;;;15.50;99.90;;;;;;5066079;28;20566;-70
2024/03/27 09:12:16;;;;;;;1.20;1.00;;;15.40;99.90;;;;;;5054252;28;20175;-70
2024/03/27 09:14:41;;;;;;;1.63;1.50;;;15.40;99.90;;;;;;5062539;28;20741;-71
2024/03/27 09:17:08;;;;;;;1.90;1.20;;;15.30;99.90;;;;;;5057734;28;20257;-70
2024/03/27 09:19:34;;;;;;;1.87;1.20;;;15.20;99.90;;;;;;5068952;28;20206;-71
2024/03/27 09:22:01;;;;;;;1.70;1.40;;;15.10;99.90;;;;;;5073328;28;20919;-71
2024/03/27 09:24:28;;;;;;;1.07;0.80;;;15.10;99.90;;;;;;5073187;28;20166;-71
2024/03/27 09:26:54;;;;;;;1.53;1.17;;;15.10;99.90;;;;;;5073048;28;20401;-72
2024/03/27 09:29:19;;;;;;;1.77;0.93;;;15.10;99.90;;;;;;5073262;28;20973;-71
2024/03/27 09:31:45;;;;;;;1.40;1.30;;;15.00;99.90;;;;;;5073184;28;20182;-70
2024/03/27 09:34:10;;;;;;;1.67;1.17;;;14.70;99.90;;;;;;5073327;28;20182;-72
2024/03/27 09:36:36;;;;;;;3.20;1.47;;;14.70;99.90;;;;;;5073043;28;20177;-71
2024/03/27 09:39:01;;;;;;;1.77;1.10;;;14.70;99.90;;;;;;5072835;28;20198;-71
2024/03/27 09:41:27;;;;;;;2.93;1.47;;;14.60;99.90;;;;;;5066759;28;20179;-72
2024/03/27 09:43:55;;;;;;;1.50;1.40;;;14.50;99.90;;;;;;5066442;28;20747;-68
2024/03/27 09:46:21;;;;;;;1.73;1.40;;;14.40;99.90;;;;;;5066644;28;20507;-71
2024/03/27 09:48:47;;;;;;;2.00;1.47;;;14.30;99.90;;;;;;5053884;28;20520;-70
2024/03/27 09:51:15;;;;;;;1.23;1.13;;;14.20;99.90;;;;;;5072491;28;20409;-70
2024/03/27 09:53:43;;;;;;;1.77;1.53;;;14.00;99.90;;;;;;5072549;28;20494;-71
2024/03/27 09:56:09;;;;;;;1.50;1.10;;;13.90;99.90;;;;;;5072748;28;20396;-71
2024/03/27 09:58:35;;;;;;;1.90;1.50;;;13.80;99.90;;;;;;5072732;28;20950;-72
2024/03/27 10:01:04;;;;;;;1.60;1.50;;;13.70;99.90;;;;;;5072590;28;20864;-71
2024/03/27 10:03:30;;;;;;;1.87;1.50;;;13.70;99.90;;;;;;5072587;28;20767;-71
2024/03/27 10:05:58;;;;;;;1.70;1.53;;;13.70;99.90;;;;;;5072666;28;20401;-71
2024/03/27 10:08:27;;;;;;;2.30;2.00;;;13.70;99.90;;;;;;5072341;28;20473;-70
2024/03/27 10:10:56;;;;;;;2.90;2.10;;;13.50;99.90;;;;;;5072483;28;20408;-71
2024/03/27 10:13:25;;;;;;;1.50;1.40;;;13.50;99.90;;;;;;5072392;28;20413;-71
2024/03/27 10:15:51;;;;;;;1.50;1.30;;;13.50;99.90;;;;;;5071281;28;20412;-71
2024/03/27 10:18:17;;;;;;;2.13;1.53;;;13.50;99.90;;;;;;5072190;28;20412;-71
2024/03/27 10:20:43;;;;;;;1.70;1.40;;;13.50;99.90;;;;;;5072361;28;20821;-71
2024/03/27 10:23:12;;;;;;;2.07;1.37;;;13.40;99.90;;;;;;5072401;28;20409;-71
2024/03/27 10:25:38;;;;;;;1.97;1.40;;;13.40;99.90;;;;;;5072306;28;20194;-71
2024/03/27 10:28:08;;;;;;;1.30;1.10;;;13.40;99.90;;;;;;5070920;28;20783;-70
2024/03/27 10:30:34;;;;;;;1.10;0.90;;;13.50;99.90;;;;;;5066121;28;20514;-71
2024/03/27 10:33:00;;;;;;;1.40;0.93;;;13.60;99.90;;;;;;5062200;28;20419;-71
2024/03/27 10:35:33;;;;;;;1.47;1.37;;;13.70;99.90;;;;;;5061953;28;20405;-71
2024/03/27 10:37:59;;;;;;;2.77;1.73;;;13.70;99.90;;;;;;5044638;28;20736;-71
2024/03/27 10:40:25;;;;;;;1.10;0.97;;;13.80;99.90;;;;;;5061742;28;20453;-71
2024/03/27 10:43:03;;;;;;;1.53;1.13;;;13.90;99.90;;;;;;5060735;28;20503;-71
2024/03/27 10:45:30;;;;;;;2.10;1.40;;;14.00;99.90;;;;;;5054973;28;20425;-71
2024/03/27 10:47:57;;;;;;;1.20;1.10;;;13.90;99.90;;;;;;5051643;28;20408;-69
2024/03/27 10:50:25;;;;;;;2.40;1.60;;;13.60;99.90;;;;;;5051825;28;20425;-71
2024/03/27 10:52:52;;;;;;;1.50;1.30;;;13.40;99.90;;;;;;5054943;28;20447;-70
2024/03/27 10:55:18;;;;;;;2.60;1.43;;;13.20;99.90;;;;;;5071266;28;20408;-72
2024/03/27 10:57:44;;;;;;;1.57;1.47;;;13.20;99.90;;;;;;5071717;28;20405;-71
2024/03/27 11:00:12;;;;;;;2.00;1.80;;;13.20;99.90;;;;;;5071619;28;20529;-72
2024/03/27 11:02:37;;;;;;;2.17;1.90;;;13.20;99.90;;;;;;5071825;28;20811;-70
2024/03/27 11:05:05;;;;;;;2.50;2.17;;;13.20;99.90;;;;;;5071727;28;20488;-71
2024/03/27 11:07:35;;;;;;;2.10;1.90;;;13.20;99.90;;;;;;5071510;28;20162;-70
2024/03/27 11:10:00;;;;;;;2.23;2.03;;;13.10;99.90;;;;;;5071787;28;20470;-72
2024/03/27 11:12:27;;;;;;;1.40;1.30;;;12.80;99.90;;;;;;5071655;28;20400;-71
2024/03/27 11:14:52;;;;;;;1.47;1.10;;;12.80;99.90;;;;;;5071688;28;20166;-70
2024/03/27 11:17:26;;;;;;;1.50;1.40;;;12.80;99.90;;;;;;5071582;28;20405;-71
2024/03/27 11:19:55;;;;;;;1.50;1.40;;;12.70;99.90;;;;;;5047039;28;20696;-71
2024/03/27 11:22:23;;;;;;;2.23;1.57;;;12.40;99.90;;;;;;5065425;28;20446;-71
2024/03/27 11:24:50;;;;;;;1.70;1.50;;;12.60;99.90;;;;;;5044809;28;20417;-71
2024/03/27 11:27:25;;;;;;;1.67;1.43;;;12.40;99.90;;;;;;5043992;28;20451;-71
2024/03/27 11:29:57;;;;;;;1.87;1.57;;;12.20;99.90;;;;;;5047083;28;20436;-69
2024/03/27 11:32:23;;;;;;;2.53;2.33;;;12.10;99.90;;;;;;5071365;28;20443;-70
2024/03/27 11:34:50;;;;;;;2.00;1.80;;;12.40;99.90;;;;;;5071552;28;20414;-70
2024/03/27 11:37:16;;;;;;;2.30;1.33;;;12.70;99.90;;;;;;5071251;28;20166;-70
2024/03/27 11:39:41;;;;;;;2.63;2.17;;;13.00;99.90;;;;;;5071290;28;20462;-69
2024/03/27 11:42:07;;;;;;;5.03;1.33;;;13.20;99.90;;;;;;5071498;28;20162;-71
2024/03/27 11:44:35;;;;;;;1.90;1.60;;;13.50;99.90;;;;;;5071422;28;20163;-69
2024/03/27 11:47:02;;;;;;;2.70;2.30;;;13.90;99.90;;;;;;5071363;28;20162;-73
2024/03/27 11:49:28;;;;;;;7.77;4.63;;;13.80;99.90;;;;;;5053504;28;20443;-69
2024/03/27 11:51:54;;;;;;;13.60;7.10;;;13.90;99.90;;;;;;5066774;28;20452;-69
2024/03/27 11:54:19;;;;;;;3.43;2.40;;;14.00;99.90;;;;;;5071519;28;20192;-70
2024/03/27 11:56:45;;;;;;;1.30;1.10;;;14.10;99.90;;;;;;5053101;28;20412;-69
2024/03/27 11:59:10;;;;;;;2.93;1.97;;;14.30;99.90;;;;;;5071083;28;20209;-69
2024/03/27 12:01:36;;;;;;;2.03;1.80;;;14.30;99.90;;;;;;5071243;28;20652;-69
2024/03/27 12:04:03;;;;;;;3.00;1.67;;;14.30;99.90;;;;;;5059844;28;20538;-70
2024/03/27 12:06:29;;;;;;;1.77;1.67;;;14.10;99.90;;;;;;5064948;28;20249;-70
2024/03/27 12:08:55;;;;;;;1.70;1.60;;;14.00;99.90;;;;;;5073462;28;20785;-69
2024/03/27 12:11:22;;;;;;;2.00;1.80;;;13.90;99.90;;;;;;5074565;28;20444;-70
2024/03/27 12:13:49;;;;;;;2.43;1.83;;;14.00;99.90;;;;;;5074825;28;20486;-70
2024/03/27 12:16:15;;;;;;;1.80;1.37;;;13.80;99.90;;;;;;5074338;28;20850;-70
2024/03/27 12:18:44;;;;;;;1.70;1.60;;;13.90;99.90;;;;;;5074579;28;20569;-69
2024/03/27 12:21:16;;;;;;;1.83;1.63;;;14.10;99.90;;;;;;5074443;28;20822;-70
2024/03/27 12:23:43;;;;;;;1.77;1.63;;;14.30;99.90;;;;;;5068152;28;20428;-70
2024/03/27 12:26:13;;;;;;;5.20;3.30;;;14.70;99.90;;;;;;5073583;28;20412;-69
2024/03/27 12:28:43;;;;;;;5.53;2.93;;;15.00;99.90;;;;;;5074299;28;20871;-69
2024/03/27 12:31:09;;;;;;;4.47;2.80;;;15.20;99.90;;;;;;5074187;28;20419;-70
2024/03/27 12:33:35;;;;;;;4.90;3.30;;;15.30;99.90;;;;;;5074203;28;20470;-70
2024/03/27 12:36:00;;;;;;;3.27;2.40;;;15.00;99.90;;;;;;5074137;28;20413;-70
2024/03/27 12:38:26;;;;;;;3.40;2.53;;;15.00;99.90;;;;;;5055944;28;20211;-70
2024/03/27 12:40:51;;;;;;;4.20;3.17;;;14.90;99.90;;;;;;5073948;28;20657;-69